Time;durP1;ratioP1;P1;durP2;ratioP2;P2;SDS_P1;SDS_P2;PMS_P1;PMS_P2;Temp;Humidity;BMP_temperature;BMP_pressure;BME280_temperature;BME280_humidity;BME280_pressure;Samples;Min_cycle;Max_cycle;Signal;HPM_P1;HPM_P2
2022/05/15 00:04:49;;;;;;;8.18;5.43;;;;;;;;;;10344876;28;20086;-77
2022/05/15 00:09:49;;;;;;;13.20;8.32;;;;;;;;;;10339917;28;20062;-77
2022/05/15 00:14:49;;;;;;;11.97;7.13;;;;;;;;;;10345612;28;20090;-77
2022/05/15 00:19:50;;;;;;;8.15;6.55;;;;;;;;;;10329631;28;20202;-76
2022/05/15 00:24:50;;;;;;;8.07;6.47;;;;;;;;;;10341925;28;20046;-77
2022/05/15 00:29:52;;;;;;;6.43;5.10;;;;;;;;;;10342850;28;20122;-77
2022/05/15 00:34:52;;;;;;;7.43;6.68;;;;;;;;;;10339051;28;20289;-78
2022/05/15 00:39:52;;;;;;;9.47;6.80;;;;;;;;;;10318743;28;20377;-79
2022/05/15 00:44:53;;;;;;;9.53;7.13;;;;;;;;;;10337748;28;20361;-77
2022/05/15 00:49:54;;;;;;;7.43;6.72;;;;;;;;;;10340791;28;20628;-77
2022/05/15 00:55:02;;;;;;;9.27;7.20;;;;;;;;;;10336103;28;20041;-77
2022/05/15 01:00:05;;;;;;;8.90;7.75;;;;;;;;;;10317830;28;20030;-76
2022/05/15 01:05:07;;;;;;;8.57;7.40;;;;;;;;;;10336582;28;20042;-79
2022/05/15 01:10:08;;;;;;;7.57;6.13;;;;;;;;;;10311381;28;20046;-78
2022/05/15 01:15:14;;;;;;;8.32;7.00;;;;;;;;;;10342004;28;20066;-77
2022/05/15 01:20:18;;;;;;;9.45;6.43;;;;;;;;;;10339666;28;20042;-76
2022/05/15 01:25:21;;;;;;;7.93;7.00;;;;;;;;;;10321007;28;20069;-76
2022/05/15 01:30:22;;;;;;;10.02;7.72;;;;;;;;;;10352878;28;20046;-77
2022/05/15 01:35:23;;;;;;;8.50;7.60;;;;;;;;;;10344458;28;20039;-77
2022/05/15 01:40:24;;;;;;;9.82;7.05;;;;;;;;;;10328040;28;20065;-77
2022/05/15 01:45:26;;;;;;;10.07;7.53;;;;;;;;;;10311427;28;20117;-77
2022/05/15 01:50:27;;;;;;;12.57;7.88;;;;;;;;;;10343506;28;20334;-78
2022/05/15 01:55:29;;;;;;;10.32;7.65;;;;;;;;;;10339611;28;20043;-77
2022/05/15 02:00:29;;;;;;;8.65;7.20;;;;;;;;;;10335579;28;20406;-77
2022/05/15 02:05:30;;;;;;;8.23;7.43;;;;;;;;;;10325662;28;20088;-78
2022/05/15 02:10:30;;;;;;;9.57;7.63;;;;;;;;;;10325267;28;20059;-78
2022/05/15 02:15:31;;;;;;;7.50;6.70;;;;;;;;;;10319775;28;20485;-79
2022/05/15 02:20:32;;;;;;;8.65;6.68;;;;;;;;;;10321481;28;20117;-77
2022/05/15 02:25:32;;;;;;;7.38;6.20;;;;;;;;;;10336927;28;20510;-80
2022/05/15 02:30:35;;;;;;;8.05;6.90;;;;;;;;;;10323706;28;20046;-80
2022/05/15 02:36:08;;;;;;;7.47;6.78;;;;;;;;;;10352565;28;20038;-79
2022/05/15 02:41:09;;;;;;;7.90;6.40;;;;;;;;;;10329603;28;20046;-78
2022/05/15 02:46:09;;;;;;;8.98;7.80;;;;;;;;;;10339627;28;20058;-79
2022/05/15 02:51:11;;;;;;;8.88;7.47;;;;;;;;;;10349071;28;20043;-79
2022/05/15 02:56:19;;;;;;;10.43;7.28;;;;;;;;;;10332325;28;20050;-77
2022/05/15 03:01:20;;;;;;;8.85;7.07;;;;;;;;;;10332939;28;20042;-78
2022/05/15 03:12:18;;;;;;;7.63;6.45;;;;;;;;;;10336207;28;20472;-80
2022/05/15 03:17:18;;;;;;;7.30;6.57;;;;;;;;;;10306161;28;20038;-80
2022/05/15 03:22:19;;;;;;;10.65;6.70;;;;;;;;;;10349066;28;20042;-81
2022/05/15 03:27:19;;;;;;;10.18;7.22;;;;;;;;;;10315579;28;20042;-81
2022/05/15 03:32:21;;;;;;;10.27;7.03;;;;;;;;;;10354885;28;20367;-80
2022/05/15 03:37:21;;;;;;;8.13;6.78;;;;;;;;;;10355493;28;20046;-80
2022/05/15 03:42:25;;;;;;;7.10;6.40;;;;;;;;;;10326772;28;20061;-79
2022/05/15 03:47:26;;;;;;;11.27;6.35;;;;;;;;;;10358690;28;20422;-79
2022/05/15 03:52:26;;;;;;;6.75;6.05;;;;;;;;;;10348209;28;20114;-79
2022/05/15 03:57:27;;;;;;;9.10;5.75;;;;;;;;;;10348652;28;20034;-78
2022/05/15 04:02:27;;;;;;;7.78;6.60;;;;;;;;;;10334929;28;20057;-78
2022/05/15 04:07:29;;;;;;;7.15;6.20;;;;;;;;;;10325120;28;20034;-78
2022/05/15 04:12:31;;;;;;;10.82;6.90;;;;;;;;;;10330587;28;20505;-80
2022/05/15 04:17:31;;;;;;;8.43;6.32;;;;;;;;;;10340660;28;20034;-79
2022/05/15 04:22:32;;;;;;;7.10;6.07;;;;;;;;;;10327454;28;20066;-77
2022/05/15 04:27:33;;;;;;;7.57;6.13;;;;;;;;;;10331171;28;20054;-78
2022/05/15 04:32:37;;;;;;;8.30;6.00;;;;;;;;;;10329219;28;20038;-78
2022/05/15 04:37:41;;;;;;;9.02;5.90;;;;;;;;;;10348016;28;20098;-77
2022/05/15 04:42:41;;;;;;;8.15;5.90;;;;;;;;;;10321824;28;20430;-77
2022/05/15 04:47:43;;;;;;;8.40;6.10;;;;;;;;;;10333757;28;20110;-77
2022/05/15 04:52:43;;;;;;;6.78;5.95;;;;;;;;;;10354958;28;20042;-77
2022/05/15 04:57:44;;;;;;;7.20;5.65;;;;;;;;;;10341379;28;20061;-78
2022/05/15 05:02:44;;;;;;;7.67;6.33;;;;;;;;;;10334434;28;20038;-77
2022/05/15 05:07:45;;;;;;;8.73;6.75;;;;;;;;;;10316627;28;20098;-78
2022/05/15 05:12:45;;;;;;;8.15;7.00;;;;;;;;;;10299134;28;20062;-80
2022/05/15 05:17:46;;;;;;;7.83;5.50;;;;;;;;;;10358910;28;20085;-79
2022/05/15 05:22:46;;;;;;;7.10;5.73;;;;;;;;;;10341537;28;20368;-79
2022/05/15 05:27:47;;;;;;;6.90;6.07;;;;;;;;;;10342148;28;20049;-79
2022/05/15 05:32:48;;;;;;;7.03;6.22;;;;;;;;;;10336460;28;20045;-80
2022/05/15 05:37:50;;;;;;;7.88;6.40;;;;;;;;;;10338948;28;20042;-81
2022/05/15 05:42:51;;;;;;;6.65;5.53;;;;;;;;;;10349875;28;20050;-78
2022/05/15 05:47:52;;;;;;;5.93;5.10;;;;;;;;;;10307525;28;20038;-79
2022/05/15 05:52:54;;;;;;;6.60;5.90;;;;;;;;;;10342677;28;20065;-80
2022/05/15 05:57:54;;;;;;;6.88;5.65;;;;;;;;;;10311036;28;20046;-79
2022/05/15 06:04:39;;;;;;;7.43;5.03;;;;;;;;;;10326028;28;20102;-80
2022/05/15 06:08:17;;;;;;;6.28;5.10;;;;;;;;;;10341479;28;20097;-78
2022/05/15 06:13:18;;;;;;;7.90;5.53;;;;;;;;;;10349782;28;20459;-78
2022/05/15 06:18:18;;;;;;;5.50;5.00;;;;;;;;;;10354565;28;20038;-79
2022/05/15 06:23:19;;;;;;;5.67;5.10;;;;;;;;;;10335155;28;20153;-79
2022/05/15 06:28:19;;;;;;;9.75;5.50;;;;;;;;;;10339658;28;20049;-78
2022/05/15 06:33:19;;;;;;;6.95;5.50;;;;;;;;;;10339013;28;20046;-78
2022/05/15 06:38:26;;;;;;;7.63;5.70;;;;;;;;;;10320647;28;20121;-79
2022/05/15 06:43:26;;;;;;;6.38;5.03;;;;;;;;;;10352461;28;20378;-77
2022/05/15 06:48:28;;;;;;;6.32;4.80;;;;;;;;;;10349241;28;20126;-77
2022/05/15 06:53:28;;;;;;;5.47;4.50;;;;;;;;;;10327975;28;20050;-78
2022/05/15 06:58:29;;;;;;;7.57;4.78;;;;;;;;;;10335498;28;20312;-78
2022/05/15 07:03:30;;;;;;;5.43;4.88;;;;;;;;;;10302946;28;20042;-79
2022/05/15 07:08:31;;;;;;;7.22;4.80;;;;;;;;;;10312655;28;20189;-76
2022/05/15 07:13:33;;;;;;;8.50;4.43;;;;;;;;;;10317245;28;20422;-77
2022/05/15 07:18:35;;;;;;;4.43;4.07;;;;;;;;;;10338377;28;20829;-75
2022/05/15 07:23:37;;;;;;;5.67;4.73;;;;;;;;;;10321745;28;20377;-78
2022/05/15 07:28:38;;;;;;;6.33;4.40;;;;;;;;;;10335691;28;20054;-75
2022/05/15 07:33:40;;;;;;;6.75;4.97;;;;;;;;;;10326818;28;20038;-77
2022/05/15 07:38:40;;;;;;;5.68;4.55;;;;;;;;;;10338782;28;20121;-76
2022/05/15 07:43:41;;;;;;;4.53;4.13;;;;;;;;;;10320808;28;20470;-76
2022/05/15 07:48:42;;;;;;;5.78;4.38;;;;;;;;;;10353823;28;20373;-77
2022/05/15 07:53:42;;;;;;;4.47;4.00;;;;;;;;;;10327164;28;20069;-78
2022/05/15 07:58:45;;;;;;;7.93;4.03;;;;;;;;;;10341463;28;20057;-76
2022/05/15 08:03:46;;;;;;;5.53;3.72;;;;;;;;;;10318331;28;20484;-76
2022/05/15 08:08:47;;;;;;;4.78;3.75;;;;;;;;;;10336919;28;20145;-75
2022/05/15 08:13:47;;;;;;;4.47;3.97;;;;;;;;;;10337944;28;20118;-76
2022/05/15 08:24:07;;;;;;;5.20;3.53;;;;;;;;;;10338128;28;20038;-76
2022/05/15 08:29:07;;;;;;;5.60;4.00;;;;;;;;;;10337347;28;20106;-76
2022/05/15 08:34:08;;;;;;;5.03;3.70;;;;;;;;;;10353358;28;20110;-77
2022/05/15 08:39:08;;;;;;;4.15;3.65;;;;;;;;;;10345387;28;20057;-74
2022/05/15 08:44:21;;;;;;;6.75;4.35;;;;;;;;;;10329113;28;20054;-76
2022/05/15 08:49:29;;;;;;;5.32;3.65;;;;;;;;;;10327351;28;20488;-74
2022/05/15 08:54:29;;;;;;;4.47;3.28;;;;;;;;;;10340142;28;20079;-74
2022/05/15 08:59:31;;;;;;;4.70;3.70;;;;;;;;;;10319911;28;20490;-74
2022/05/15 09:04:32;;;;;;;3.80;3.15;;;;;;;;;;10335527;28;20064;-76
2022/05/15 09:09:57;;;;;;;4.47;2.70;;;;;;;;;;10334449;28;20101;-75
2022/05/15 09:15:04;;;;;;;5.75;3.40;;;;;;;;;;10301641;28;20034;-75
2022/05/15 09:20:08;;;;;;;5.10;2.97;;;;;;;;;;10338340;28;20038;-75
2022/05/15 09:25:16;;;;;;;3.65;3.10;;;;;;;;;;10337242;28;20042;-75
2022/05/15 09:30:18;;;;;;;5.57;2.20;;;;;;;;;;10339231;28;20054;-75
2022/05/15 09:35:28;;;;;;;6.18;2.55;;;;;;;;;;10338217;28;20458;-76
2022/05/15 09:43:30;;;;;;;3.50;2.08;;;;;;;;;;10321619;28;20330;-76
2022/05/15 09:46:15;;;;;;;4.65;2.40;;;;;;;;;;10333725;28;20573;-76
2022/05/15 09:51:24;;;;;;;4.20;2.50;;;;;;;;;;10334812;28;20077;-75
2022/05/15 09:56:26;;;;;;;3.95;2.65;;;;;;;;;;10336477;28;20057;-75
2022/05/15 10:01:35;;;;;;;5.00;2.40;;;;;;;;;;10335470;28;20057;-76
2022/05/15 10:06:47;;;;;;;3.97;2.42;;;;;;;;;;10331784;28;20381;-75
2022/05/15 10:11:56;;;;;;;3.97;2.50;;;;;;;;;;10321447;28;20126;-76
2022/05/15 10:16:57;;;;;;;2.60;2.03;;;;;;;;;;10317848;28;20274;-75
2022/05/15 10:22:07;;;;;;;3.30;2.25;;;;;;;;;;10337354;28;20038;-76
2022/05/15 10:27:10;;;;;;;2.70;2.20;;;;;;;;;;10340888;28;20137;-75
2022/05/15 10:32:23;;;;;;;4.82;2.40;;;;;;;;;;10336422;28;20050;-74
2022/05/15 10:37:30;;;;;;;2.70;2.00;;;;;;;;;;10337055;28;20152;-75
2022/05/15 10:42:49;;;;;;;2.65;2.38;;;;;;;;;;10337991;28;20100;-74
2022/05/15 10:47:59;;;;;;;2.40;2.20;;;;;;;;;;10330020;28;20049;-75
2022/05/15 10:58:49;;;;;;;4.57;4.15;;;;;;;;;;10352035;28;20046;-75
2022/05/15 11:03:56;;;;;;;2.50;1.95;;;;;;;;;;10351049;28;20038;-74
2022/05/15 11:09:01;;;;;;;2.92;2.30;;;;;;;;;;10344422;28;20375;-77
2022/05/15 11:14:09;;;;;;;3.97;2.30;;;;;;;;;;10354251;28;20046;-80
2022/05/15 11:19:28;;;;;;;4.60;2.33;;;;;;;;;;10345862;28;20542;-78
2022/05/15 11:24:31;;;;;;;4.13;2.28;;;;;;;;;;10348135;28;20111;-78
2022/05/15 11:29:35;;;;;;;5.20;2.35;;;;;;;;;;10345801;28;20097;-79
2022/05/15 11:34:57;;;;;;;3.05;2.00;;;;;;;;;;10343191;28;20034;-78
2022/05/15 11:39:59;;;;;;;2.97;2.33;;;;;;;;;;10335183;28;20038;-77
2022/05/15 11:45:18;;;;;;;4.43;2.80;;;;;;;;;;10348726;28;20045;-77
2022/05/15 11:50:35;;;;;;;3.45;2.10;;;;;;;;;;10328419;28;20057;-79
2022/05/15 11:55:35;;;;;;;3.80;2.33;;;;;;;;;;10346364;28;20118;-78
2022/05/15 12:00:39;;;;;;;4.22;2.10;;;;;;;;;;10330496;28;20078;-80
2022/05/15 12:05:59;;;;;;;3.72;2.75;;;;;;;;;;10336811;28;20042;-76
2022/05/15 12:11:12;;;;;;;2.63;2.00;;;;;;;;;;10344428;28;20042;-78
2022/05/15 12:16:13;;;;;;;3.92;1.95;;;;;;;;;;10341995;28;20042;-76
2022/05/15 12:21:16;;;;;;;3.53;2.05;;;;;;;;;;10313674;28;20393;-76
2022/05/15 12:26:26;;;;;;;3.65;2.15;;;;;;;;;;10320594;28;20065;-76
2022/05/15 12:31:29;;;;;;;3.80;2.10;;;;;;;;;;10303261;28;20151;-75
2022/05/15 12:36:33;;;;;;;2.92;2.03;;;;;;;;;;10322231;28;20038;-76
2022/05/15 12:41:38;;;;;;;4.82;2.00;;;;;;;;;;10298266;28;20042;-76
2022/05/15 12:46:40;;;;;;;3.42;1.73;;;;;;;;;;10321955;28;20049;-76
2022/05/15 12:51:40;;;;;;;;;;;;;;;;;;10334606;28;20050;-76
2022/05/15 12:56:40;;;;;;;4.40;2.10;;;;;;;;;;10320890;28;19928;-77
2022/05/15 13:01:41;;;;;;;3.20;1.97;;;;;;;;;;10334233;28;20031;-76
2022/05/15 13:06:48;;;;;;;3.83;2.00;;;;;;;;;;10345224;28;20044;-74
2022/05/15 13:11:50;;;;;;;4.28;2.20;;;;;;;;;;10334920;28;20050;-74
2022/05/15 13:16:52;;;;;;;5.28;2.22;;;;;;;;;;10319392;28;20073;-75
2022/05/15 13:21:54;;;;;;;3.85;2.10;;;;;;;;;;10320798;28;20062;-77
2022/05/15 13:26:56;;;;;;;3.30;2.08;;;;;;;;;;10339519;28;20500;-76
2022/05/15 13:31:57;;;;;;;;;;;;;;;;;;10335335;28;20171;-76
2022/05/15 13:36:57;;;;;;;2.38;1.70;;;;;;;;;;10334929;28;19910;-77
2022/05/15 13:47:23;;;;;;;4.40;2.30;;;;;;;;;;10325098;28;20070;-74
2022/05/15 13:52:26;;;;;;;2.47;1.90;;;;;;;;;;10333409;28;20066;-74
2022/05/15 13:57:27;;;;;;;2.80;1.92;;;;;;;;;;10315141;28;20049;-75
2022/05/15 14:02:28;;;;;;;;;;;;;;;;;;10332707;28;20038;-75
2022/05/15 14:07:30;;;;;;;3.47;1.95;;;;;;;;;;10334833;28;20000;-78
2022/05/15 14:12:56;;;;;;;2.20;1.98;;;;;;;;;;10331250;28;20042;-77
2022/05/15 14:18:00;;;;;;;2.65;1.80;;;;;;;;;;10315285;28;20045;-76
2022/05/15 14:23:05;;;;;;;2.90;1.83;;;;;;;;;;10340636;28;20382;-78
2022/05/15 14:28:06;;;;;;;3.53;1.63;;;;;;;;;;10328484;28;20038;-76
2022/05/15 14:33:07;;;;;;;3.20;2.40;;;;;;;;;;10356717;28;20384;-76
2022/05/15 14:38:07;;;;;;;4.63;2.13;;;;;;;;;;10326713;28;20169;-78
2022/05/15 14:43:08;;;;;;;2.73;1.80;;;;;;;;;;10343552;28;20305;-75
2022/05/15 14:48:09;;;;;;;5.35;1.90;;;;;;;;;;10346305;28;20049;-76
2022/05/15 14:53:09;;;;;;;3.70;1.90;;;;;;;;;;10337891;28;20401;-76
2022/05/15 14:58:12;;;;;;;2.77;1.90;;;;;;;;;;10343042;28;20269;-76
2022/05/15 15:03:12;;;;;;;2.33;1.60;;;;;;;;;;10341162;28;20052;-76
2022/05/15 15:08:17;;;;;;;3.67;2.13;;;;;;;;;;10351089;28;20077;-76
2022/05/15 15:13:17;;;;;;;2.10;1.90;;;;;;;;;;10337992;28;20050;-77
2022/05/15 15:18:18;;;;;;;3.10;1.90;;;;;;;;;;10352145;28;20042;-76
2022/05/15 15:23:18;;;;;;;2.23;2.00;;;;;;;;;;10328036;28;20056;-76
2022/05/15 15:28:18;;;;;;;2.70;2.10;;;;;;;;;;10341214;28;20102;-76
2022/05/15 15:33:19;;;;;;;2.88;2.25;;;;;;;;;;10308441;28;20058;-76
2022/05/15 15:38:20;;;;;;;3.13;2.07;;;;;;;;;;10323667;28;20105;-78
2022/05/15 15:43:22;;;;;;;3.45;2.15;;;;;;;;;;10295730;28;20109;-77
2022/05/15 15:48:23;;;;;;;3.65;2.65;;;;;;;;;;10339457;28;20038;-76
2022/05/15 15:53:24;;;;;;;4.03;2.40;;;;;;;;;;10340018;28;20061;-77
2022/05/15 15:58:24;;;;;;;4.17;2.30;;;;;;;;;;10337521;28;20296;-78
2022/05/15 16:03:24;;;;;;;2.43;1.80;;;;;;;;;;10340701;28;20431;-79
2022/05/15 16:08:27;;;;;;;4.40;2.47;;;;;;;;;;10323554;28;20038;-78
2022/05/15 16:13:28;;;;;;;2.67;2.05;;;;;;;;;;10339239;28;20042;-78
2022/05/15 16:18:28;;;;;;;4.22;2.75;;;;;;;;;;10323974;28;20114;-77
2022/05/15 16:23:30;;;;;;;2.80;2.10;;;;;;;;;;10331696;28;20041;-76
2022/05/15 16:28:31;;;;;;;5.40;2.13;;;;;;;;;;10319105;28;20070;-77
2022/05/15 16:33:33;;;;;;;3.97;2.30;;;;;;;;;;10332268;28;20048;-76
2022/05/15 16:38:33;;;;;;;3.73;2.40;;;;;;;;;;10322373;28;20034;-77
2022/05/15 16:43:33;;;;;;;3.63;2.40;;;;;;;;;;10338775;28;20035;-78
2022/05/15 16:48:36;;;;;;;4.90;2.47;;;;;;;;;;10349644;28;20265;-75
2022/05/15 16:53:37;;;;;;;4.88;2.33;;;;;;;;;;10322101;28;20100;-76
2022/05/15 16:58:37;;;;;;;3.20;2.22;;;;;;;;;;10325694;28;20045;-78
2022/05/15 17:03:38;;;;;;;4.18;2.53;;;;;;;;;;10338762;28;20045;-77
2022/05/15 17:08:39;;;;;;;3.80;2.27;;;;;;;;;;10336387;28;20038;-77
2022/05/15 17:13:39;;;;;;;3.58;2.20;;;;;;;;;;10335963;28;20101;-77
2022/05/15 17:18:41;;;;;;;3.40;2.50;;;;;;;;;;10344931;28;20039;-78
2022/05/15 17:23:43;;;;;;;2.50;2.30;;;;;;;;;;10344249;28;20776;-76
2022/05/15 17:34:15;;;;;;;7.20;2.70;;;;;;;;;;10338407;28;20034;-77
2022/05/15 17:39:17;;;;;;;3.22;2.20;;;;;;;;;;10324319;28;20046;-76
2022/05/15 17:44:17;;;;;;;3.58;2.63;;;;;;;;;;10338366;28;20419;-77
2022/05/15 17:49:17;;;;;;;5.10;4.03;;;;;;;;;;10335086;28;20065;-78
2022/05/15 17:54:18;;;;;;;3.17;2.88;;;;;;;;;;10319149;28;20281;-81
2022/05/15 17:59:18;;;;;;;5.95;3.33;;;;;;;;;;10318401;28;20069;-78
2022/05/15 18:04:19;;;;;;;3.10;2.50;;;;;;;;;;10332318;28;20137;-75
2022/05/15 18:09:19;;;;;;;5.15;2.95;;;;;;;;;;10330872;28;20074;-76
2022/05/15 18:14:20;;;;;;;5.40;3.17;;;;;;;;;;10334962;28;20075;-74
2022/05/15 18:19:22;;;;;;;3.92;3.03;;;;;;;;;;10333349;28;20042;-74
2022/05/15 18:24:23;;;;;;;5.90;4.80;;;;;;;;;;10335954;28;20042;-77
2022/05/15 18:29:24;;;;;;;5.90;3.92;;;;;;;;;;10319622;28;20063;-79
2022/05/15 18:34:24;;;;;;;3.97;2.78;;;;;;;;;;10340093;28;20078;-78
2022/05/15 18:39:25;;;;;;;4.28;3.13;;;;;;;;;;10339377;28;20494;-78
2022/05/15 18:44:28;;;;;;;4.07;3.30;;;;;;;;;;10323344;28;20050;-77
2022/05/15 18:49:29;;;;;;;6.88;4.18;;;;;;;;;;10308089;28;20046;-79
2022/05/15 18:59:49;;;;;;;5.72;3.70;;;;;;;;;;10326757;28;20477;-78
2022/05/15 19:04:49;;;;;;;5.38;3.85;;;;;;;;;;10333522;28;20047;-77
2022/05/15 19:09:50;;;;;;;5.70;3.70;;;;;;;;;;10318480;28;20518;-76
2022/05/15 19:14:52;;;;;;;;;;;;;;;;;;10326976;28;20038;-79
2022/05/15 19:19:53;;;;;;;4.43;4.03;;;;;;;;;;10342597;28;19941;-76
2022/05/15 19:24:54;;;;;;;5.88;4.20;;;;;;;;;;10345213;28;20497;-78
2022/05/15 19:29:55;;;;;;;4.83;4.20;;;;;;;;;;10330692;28;20066;-77
2022/05/15 19:34:56;;;;;;;6.43;4.70;;;;;;;;;;10343205;28;20046;-78
2022/05/15 19:39:56;;;;;;;7.28;3.97;;;;;;;;;;10343835;28;20278;-75
2022/05/15 19:44:57;;;;;;;5.13;4.03;;;;;;;;;;10309940;28;20093;-77
2022/05/15 19:50:01;;;;;;;5.65;5.05;;;;;;;;;;10348605;28;20054;-79
2022/05/15 19:55:01;;;;;;;5.20;4.20;;;;;;;;;;10345495;28;20042;-76
2022/05/15 20:00:04;;;;;;;6.45;4.30;;;;;;;;;;10325123;28;20108;-77
2022/05/15 20:15:43;;;;;;;4.90;4.40;;;;;;;;;;10351453;28;20119;-76
2022/05/15 20:20:43;;;;;;;6.60;4.93;;;;;;;;;;10358036;28;20060;-78
2022/05/15 20:25:44;;;;;;;5.05;4.47;;;;;;;;;;10346779;28;20077;-76
2022/05/15 20:30:44;;;;;;;6.27;4.90;;;;;;;;;;10329740;28;20125;-76
2022/05/15 20:35:45;;;;;;;6.20;4.60;;;;;;;;;;10332126;28;20084;-78
2022/05/15 20:40:45;;;;;;;5.63;4.90;;;;;;;;;;10338057;28;20122;-77
2022/05/15 20:45:46;;;;;;;5.63;4.37;;;;;;;;;;10307712;28;20121;-77
2022/05/15 20:50:46;;;;;;;6.30;4.50;;;;;;;;;;10328011;28;20050;-78
2022/05/15 20:55:47;;;;;;;6.93;4.93;;;;;;;;;;10329395;28;20128;-78
2022/05/15 21:00:47;;;;;;;6.27;5.10;;;;;;;;;;10313246;28;20155;-77
2022/05/15 21:05:47;;;;;;;6.33;5.20;;;;;;;;;;10324077;28;20278;-79
2022/05/15 21:10:49;;;;;;;5.67;5.03;;;;;;;;;;10327491;28;20345;-80
2022/05/15 21:15:52;;;;;;;7.50;4.63;;;;;;;;;;10329144;28;20049;-78
2022/05/15 21:20:53;;;;;;;6.28;4.85;;;;;;;;;;10342716;28;20038;-77
2022/05/15 21:25:54;;;;;;;6.13;4.70;;;;;;;;;;10340643;28;20045;-76
2022/05/15 21:30:56;;;;;;;5.43;4.90;;;;;;;;;;10332216;28;20316;-78
2022/05/15 21:35:56;;;;;;;6.43;4.50;;;;;;;;;;10331070;28;20038;-76
2022/05/15 21:46:17;;;;;;;5.07;4.18;;;;;;;;;;10333286;28;20045;-74
2022/05/15 21:51:21;;;;;;;5.85;4.63;;;;;;;;;;10315462;28;20117;-75
2022/05/15 21:56:22;;;;;;;5.40;4.88;;;;;;;;;;10307758;28;20481;-77
2022/05/15 22:01:23;;;;;;;5.85;4.85;;;;;;;;;;10318059;28;20501;-75
2022/05/15 22:06:23;;;;;;;5.13;4.70;;;;;;;;;;10340474;28;20057;-76
2022/05/15 22:11:23;;;;;;;5.70;4.93;;;;;;;;;;10306738;28;20088;-76
2022/05/15 22:16:24;;;;;;;5.72;4.70;;;;;;;;;;10338869;28;20101;-76
2022/05/15 22:21:24;;;;;;;8.35;4.82;;;;;;;;;;10339597;28;20042;-77
2022/05/15 22:26:26;;;;;;;6.97;4.90;;;;;;;;;;10341230;28;20458;-78
2022/05/15 22:31:27;;;;;;;6.03;5.37;;;;;;;;;;10339796;28;20474;-75
2022/05/15 22:36:27;;;;;;;8.57;5.53;;;;;;;;;;10318355;28;20101;-78
2022/05/15 22:41:27;;;;;;;8.27;5.57;;;;;;;;;;10326926;28;20042;-79
2022/05/15 22:46:28;;;;;;;6.73;5.87;;;;;;;;;;10336343;28;20105;-77
2022/05/15 22:51:30;;;;;;;7.20;5.60;;;;;;;;;;10353506;28;20046;-77
2022/05/15 22:56:31;;;;;;;6.25;5.60;;;;;;;;;;10376205;28;20066;-78
2022/05/15 23:01:32;;;;;;;6.78;5.97;;;;;;;;;;10343012;28;20074;-78
2022/05/15 23:11:51;;;;;;;11.30;6.82;;;;;;;;;;10364581;28;20073;-77
2022/05/15 23:16:52;;;;;;;8.27;7.37;;;;;;;;;;10324221;28;20035;-77
2022/05/15 23:21:54;;;;;;;8.32;7.50;;;;;;;;;;10340168;28;20064;-77
2022/05/15 23:26:54;;;;;;;8.02;7.22;;;;;;;;;;10338950;28;20168;-75
2022/05/15 23:31:55;;;;;;;7.87;7.10;;;;;;;;;;10338182;28;20042;-75
2022/05/15 23:36:55;;;;;;;8.60;7.63;;;;;;;;;;10321716;28;20037;-75
2022/05/15 23:41:55;;;;;;;9.27;8.07;;;;;;;;;;10338051;28;20359;-76
2022/05/15 23:46:59;;;;;;;8.60;7.77;;;;;;;;;;10330428;28;20050;-75
2022/05/15 23:52:00;;;;;;;9.57;8.20;;;;;;;;;;10342347;28;20061;-74
2022/05/15 23:57:00;;;;;;;9.80;8.07;;;;;;;;;;10340454;28;20046;-76
